createdAt,value
2022-12-09T00:01:17.276Z,51.67
2022-12-09T00:03:44.069Z,48.38
2022-12-09T00:06:15.517Z,46.35
2022-12-09T00:08:42.352Z,49.45
2022-12-09T00:11:09.344Z,48.08
2022-12-09T00:13:36.220Z,46.42
2022-12-09T00:16:14.387Z,48.72
2022-12-09T00:18:41.954Z,44.63
2022-12-09T00:21:22.659Z,46.58
2022-12-09T00:23:50.180Z,46.60
2022-12-09T00:26:18.801Z,47.90
2022-12-09T00:28:45.486Z,48.90
2022-12-09T00:31:21.596Z,45.70
2022-12-09T00:33:48.105Z,49.92
2022-12-09T00:36:17.457Z,48.58
2022-12-09T00:38:44.182Z,50.97
2022-12-09T00:41:11.656Z,49.35
2022-12-09T00:43:38.181Z,51.85
2022-12-09T00:46:05.011Z,47.40
2022-12-09T00:48:34.289Z,50.25
2022-12-09T00:51:01.749Z,48.42
2022-12-09T00:53:28.563Z,48.83
2022-12-09T00:55:55.100Z,50.80
2022-12-09T00:58:21.760Z,47.63
2022-12-09T01:00:48.261Z,53.13
2022-12-09T01:03:16.912Z,49.80
2022-12-09T01:05:43.781Z,49.63
2022-12-09T01:08:11.654Z,48.60
2022-12-09T01:10:39.845Z,48.90
2022-12-09T01:13:06.723Z,48.35
2022-12-09T01:15:33.631Z,50.03
2022-12-09T01:18:00.243Z,48.92
2022-12-09T01:20:26.699Z,47.60
2022-12-09T01:22:53.205Z,47.90
2022-12-09T01:25:19.712Z,48.25
2022-12-09T01:27:46.318Z,49.08
2022-12-09T01:30:13.995Z,48.85
2022-12-09T01:32:41.611Z,50.00
2022-12-09T01:35:08.797Z,47.22
2022-12-09T01:37:36.971Z,50.50
2022-12-09T01:40:09.481Z,52.67
2022-12-09T01:42:36.170Z,52.80
2022-12-09T01:45:25.010Z,50.90
2022-12-09T01:47:56.483Z,49.03
2022-12-09T01:52:50.573Z,46.08
2022-12-09T01:55:17.773Z,47.17
2022-12-09T01:57:46.081Z,46.42
2022-12-09T02:00:13.815Z,43.17
2022-12-09T02:02:42.595Z,42.97
2022-12-09T02:05:10.562Z,45.72
2022-12-09T02:07:37.386Z,47.85
2022-12-09T02:10:08.870Z,44.85
2022-12-09T02:12:46.631Z,45.55
2022-12-09T02:15:16.840Z,43.72
2022-12-09T02:17:53.297Z,46.58
2022-12-09T02:20:30.549Z,46.63
2022-12-09T02:23:11.393Z,47.38
2022-12-09T02:25:37.793Z,43.17
2022-12-09T02:28:35.072Z,42.33
2022-12-09T02:31:23.712Z,45.17
2022-12-09T02:33:57.488Z,43.72
2022-12-09T02:36:29.052Z,43.38
2022-12-09T02:41:27.969Z,45.22
2022-12-09T02:44:02.633Z,39.45
2022-12-09T02:46:30.213Z,44.13
2022-12-09T02:48:59.291Z,43.88
2022-12-09T02:51:30.910Z,42.17
2022-12-09T02:56:27.921Z,45.38
2022-12-09T02:58:54.653Z,44.95
2022-12-09T03:01:23.151Z,43.05
2022-12-09T03:03:53.430Z,46.45
2022-12-09T03:06:21.270Z,44.45
2022-12-09T03:08:56.328Z,42.90
2022-12-09T03:11:24.967Z,47.75
2022-12-09T03:14:03.559Z,45.65
2022-12-09T03:16:34.941Z,45.25
2022-12-09T03:19:12.180Z,43.83
2022-12-09T03:21:44.210Z,45.47
2022-12-09T03:24:15.384Z,43.80
2022-12-09T03:26:43.207Z,44.92
2022-12-09T03:29:24.992Z,45.30
2022-12-09T03:31:54.999Z,49.22
2022-12-09T03:34:26.281Z,46.83
2022-12-09T03:36:53.871Z,48.88
2022-12-09T03:39:27.936Z,45.85
2022-12-09T03:42:01.655Z,45.85
2022-12-09T03:44:46.359Z,46.65
2022-12-09T03:47:13.089Z,46.60
2022-12-09T03:49:40.386Z,46.13
2022-12-09T03:52:31.463Z,45.35
2022-12-09T03:55:04.413Z,46.45
2022-12-09T03:57:34.659Z,44.63
2022-12-09T04:00:02.317Z,45.35
2022-12-09T04:02:29.390Z,44.72
2022-12-09T04:04:56.213Z,47.28
2022-12-09T04:07:22.996Z,48.30
2022-12-09T04:09:49.874Z,46.38
2022-12-09T04:12:16.468Z,46.83
2022-12-09T04:14:43.231Z,45.72
2022-12-09T04:17:11.229Z,47.70
2022-12-09T04:19:38.199Z,44.10
2022-12-09T04:22:04.819Z,45.55
2022-12-09T04:24:31.335Z,46.92
2022-12-09T04:26:58.069Z,45.95
2022-12-09T04:29:24.514Z,45.00
2022-12-09T04:31:51.147Z,41.63
2022-12-09T04:34:18.053Z,40.50
2022-12-09T04:36:44.547Z,41.20
2022-12-09T04:39:11.309Z,43.33
2022-12-09T04:41:38.189Z,42.92
2022-12-09T04:44:05.563Z,38.80
2022-12-09T04:46:32.561Z,43.45
2022-12-09T04:48:59.014Z,38.00
2022-12-09T04:51:25.463Z,42.25
2022-12-09T04:53:51.989Z,41.72
2022-12-09T04:56:20.342Z,40.53
2022-12-09T04:58:49.167Z,44.00
2022-12-09T05:01:22.594Z,40.58
2022-12-09T05:03:54.130Z,43.03
2022-12-09T05:06:22.105Z,42.00
2022-12-09T05:08:49.235Z,42.17
2022-12-09T05:11:17.855Z,47.75
2022-12-09T05:13:44.818Z,44.50
2022-12-09T05:16:16.954Z,45.47
2022-12-09T05:18:45.142Z,44.70
2022-12-09T05:21:15.147Z,41.03
2022-12-09T05:23:42.541Z,40.60
2022-12-09T05:26:12.676Z,42.47
2022-12-09T05:28:39.559Z,43.20
2022-12-09T05:31:09.348Z,41.95
2022-12-09T05:33:36.222Z,41.83
2022-12-09T05:36:03.730Z,42.72
2022-12-09T05:38:30.676Z,41.20
2022-12-09T05:41:00.735Z,40.97
2022-12-09T05:43:27.672Z,41.95
2022-12-09T05:45:54.296Z,45.90
2022-12-09T05:48:21.786Z,42.95
2022-12-09T05:51:03.469Z,44.60
2022-12-09T05:55:57.592Z,42.42
2022-12-09T05:58:24.610Z,43.15
2022-12-09T06:00:51.513Z,41.85
2022-12-09T06:03:18.284Z,40.35
2022-12-09T06:05:45.280Z,40.45
2022-12-09T06:08:12.694Z,42.55
2022-12-09T06:10:40.658Z,48.13
2022-12-09T06:13:08.647Z,44.40
2022-12-09T06:15:36.047Z,40.65
2022-12-09T06:18:03.276Z,40.88
2022-12-09T06:20:30.570Z,44.22
2022-12-09T06:22:57.572Z,47.85
2022-12-09T06:25:24.175Z,48.75
2022-12-09T06:27:53.908Z,48.60
2022-12-09T06:30:21.021Z,44.58
2022-12-09T06:32:47.756Z,40.38
2022-12-09T06:35:15.429Z,47.63
2022-12-09T06:37:42.441Z,41.08
2022-12-09T06:40:10.139Z,41.33
2022-12-09T06:42:37.107Z,38.10
2022-12-09T06:45:04.780Z,44.17
2022-12-09T06:47:31.545Z,41.22
2022-12-09T06:50:06.701Z,35.92
2022-12-09T06:52:34.314Z,38.85
2022-12-09T06:55:01.446Z,36.35
2022-12-09T06:57:28.152Z,38.63
2022-12-09T06:59:55.030Z,39.00
2022-12-09T07:02:23.034Z,37.30
2022-12-09T07:04:54.533Z,38.15
2022-12-09T07:07:21.840Z,35.42
2022-12-09T07:09:48.884Z,40.05
2022-12-09T07:12:16.034Z,35.40
2022-12-09T07:14:42.557Z,34.95
2022-12-09T07:17:16.614Z,36.90
2022-12-09T07:19:43.375Z,37.88
2022-12-09T07:22:10.271Z,37.78
2022-12-09T07:24:38.349Z,37.25
2022-12-09T07:27:10.729Z,35.30
2022-12-09T07:29:39.720Z,32.22
2022-12-09T07:32:09.255Z,32.55
2022-12-09T07:34:37.218Z,34.42
2022-12-09T07:37:03.986Z,37.70
2022-12-09T07:39:31.024Z,39.10
2022-12-09T07:41:58.393Z,36.25
2022-12-09T07:44:28.306Z,34.20
2022-12-09T07:46:55.874Z,33.03
2022-12-09T07:49:22.653Z,31.90
2022-12-09T07:51:49.660Z,27.92
2022-12-09T07:54:19.039Z,29.02
2022-12-09T07:56:46.294Z,28.02
2022-12-09T07:59:14.626Z,29.27
2022-12-09T08:01:41.523Z,28.65
2022-12-09T08:04:08.285Z,28.13
2022-12-09T08:06:35.829Z,30.55
2022-12-09T08:09:06.106Z,30.77
2022-12-09T08:11:34.281Z,30.63
2022-12-09T08:14:08.951Z,29.35
2022-12-09T08:16:38.444Z,27.83
2022-12-09T08:19:05.368Z,33.33
2022-12-09T08:21:33.586Z,31.42
2022-12-09T08:24:02.535Z,28.60
2022-12-09T08:26:31.449Z,27.70
2022-12-09T08:28:59.095Z,27.98
2022-12-09T08:31:27.501Z,27.27
2022-12-09T08:33:54.930Z,26.70
2022-12-09T08:36:25.529Z,26.10
2022-12-09T08:38:52.984Z,21.73
2022-12-09T08:41:22.945Z,18.52
2022-12-09T08:43:49.971Z,18.27
2022-12-09T08:46:17.041Z,15.68
2022-12-09T08:48:43.722Z,16.48
2022-12-09T08:51:12.245Z,16.83
2022-12-09T08:53:39.791Z,13.85
2022-12-09T08:56:14.778Z,17.63
2022-12-09T08:58:42.700Z,17.35
2022-12-09T09:01:18.032Z,17.83
2022-12-09T09:03:45.931Z,18.58
2022-12-09T09:06:14.301Z,20.40
2022-12-09T09:08:41.697Z,19.75
2022-12-09T09:11:10.920Z,22.30
2022-12-09T09:13:40.818Z,19.27
2022-12-09T09:16:13.312Z,16.27
2022-12-09T09:18:40.978Z,14.65
2022-12-09T09:21:09.799Z,16.17
2022-12-09T09:23:36.747Z,16.50
2022-12-09T09:26:04.151Z,15.45
2022-12-09T09:28:31.838Z,16.40
2022-12-09T09:31:04.247Z,16.52
2022-12-09T09:33:31.018Z,15.95
2022-12-09T09:36:06.873Z,14.15
2022-12-09T09:38:36.734Z,10.27
2022-12-09T09:41:16.669Z,9.48
2022-12-09T09:43:43.885Z,11.18
2022-12-09T09:46:20.858Z,12.65
2022-12-09T09:48:48.571Z,13.98
2022-12-09T09:51:20.570Z,15.05
2022-12-09T09:53:50.535Z,15.20
2022-12-09T09:56:26.929Z,14.45
2022-12-09T09:59:11.946Z,15.65
2022-12-09T10:01:39.757Z,16.00
2022-12-09T10:04:35.594Z,13.77
2022-12-09T10:07:07.953Z,15.27
2022-12-09T10:09:47.014Z,13.70
2022-12-09T10:12:25.827Z,13.25
2022-12-09T10:15:08.814Z,11.45
2022-12-09T10:17:50.132Z,12.55
2022-12-09T10:20:24.458Z,13.05
2022-12-09T10:23:02.241Z,12.25
2022-12-09T10:25:35.602Z,14.70
2022-12-09T10:28:14.197Z,12.88
2022-12-09T10:30:44.676Z,13.13
2022-12-09T10:33:16.690Z,15.95
2022-12-09T10:38:18.973Z,14.40
2022-12-09T10:40:57.067Z,13.30
2022-12-09T10:43:37.578Z,15.18
2022-12-09T10:46:20.499Z,10.93
2022-12-09T10:48:48.549Z,11.60
2022-12-09T10:51:22.225Z,11.30
2022-12-09T10:53:55.222Z,11.10
2022-12-09T10:56:33.477Z,10.60
2022-12-09T10:59:17.905Z,10.00
2022-12-09T11:01:56.717Z,12.95
2022-12-09T11:04:23.988Z,15.95
2022-12-09T11:06:57.410Z,15.98
2022-12-09T11:09:34.645Z,11.48
2022-12-09T11:12:04.242Z,9.73
2022-12-09T11:14:42.102Z,8.48
2022-12-09T11:17:15.753Z,8.63
2022-12-09T11:19:43.752Z,9.00
2022-12-09T11:22:28.359Z,10.30
2022-12-09T11:25:15.809Z,23.80
2022-12-09T11:27:55.538Z,13.43
2022-12-09T11:30:35.035Z,10.30
2022-12-09T11:33:14.353Z,10.38
2022-12-09T11:35:44.201Z,8.95
2022-12-09T11:38:29.619Z,11.32
2022-12-09T11:41:13.411Z,13.20
2022-12-09T11:43:48.668Z,13.27
2022-12-09T11:46:17.991Z,10.75
2022-12-09T11:48:53.755Z,17.67
2022-12-09T11:51:30.179Z,15.50
2022-12-09T11:54:13.204Z,22.15
2022-12-09T11:56:40.985Z,17.20
2022-12-09T11:59:23.975Z,17.40
2022-12-09T12:02:05.935Z,11.48
2022-12-09T12:04:55.987Z,13.80
2022-12-09T12:07:35.363Z,14.38
2022-12-09T12:10:03.262Z,12.27
2022-12-09T12:12:41.205Z,13.15
2022-12-09T12:15:16.483Z,13.32
2022-12-09T12:17:49.607Z,13.40
2022-12-09T12:20:16.580Z,10.38
2022-12-09T12:22:56.543Z,11.38
2022-12-09T12:25:50.627Z,11.70
2022-12-09T12:28:29.237Z,11.63
2022-12-09T12:31:12.234Z,12.05
2022-12-09T12:34:24.168Z,11.30
2022-12-09T12:37:18.918Z,10.55
2022-12-09T12:39:57.930Z,11.05
2022-12-09T12:43:03.127Z,10.10
2022-12-09T12:45:57.156Z,11.13
2022-12-09T12:48:53.046Z,10.20
2022-12-09T12:51:25.641Z,9.82
2022-12-09T12:54:20.246Z,10.02
2022-12-09T12:56:58.676Z,8.57
2022-12-09T12:59:57.151Z,10.90
2022-12-09T13:02:42.782Z,10.60
2022-12-09T13:05:15.688Z,9.90
2022-12-09T13:07:52.580Z,9.00
2022-12-09T13:10:36.013Z,9.80
2022-12-09T13:13:05.966Z,10.30
2022-12-09T13:15:43.485Z,8.80
2022-12-09T13:18:19.309Z,8.68
2022-12-09T13:20:50.244Z,7.63
2022-12-09T13:23:46.175Z,7.05
2022-12-09T13:26:33.182Z,7.40
2022-12-09T13:29:15.477Z,8.68
2022-12-09T13:32:15.681Z,9.55
2022-12-09T13:34:46.917Z,15.15
2022-12-09T13:37:32.090Z,12.73
2022-12-09T13:39:58.802Z,9.02
2022-12-09T13:42:47.003Z,7.43
2022-12-09T13:45:20.032Z,8.77
2022-12-09T13:47:47.474Z,9.05
2022-12-09T13:50:39.431Z,8.30
2022-12-09T13:53:05.833Z,10.00
2022-12-09T13:55:38.751Z,9.95
2022-12-09T13:58:43.863Z,10.20
2022-12-09T14:01:13.395Z,11.02
2022-12-09T14:04:06.545Z,9.85
2022-12-09T14:06:45.293Z,10.52
2022-12-09T14:09:33.708Z,8.98
2022-12-09T14:12:03.344Z,10.82
2022-12-09T14:14:29.718Z,10.68
2022-12-09T14:17:16.370Z,10.90
2022-12-09T14:19:42.899Z,10.43
2022-12-09T14:22:21.647Z,10.52
2022-12-09T14:24:49.853Z,10.70
2022-12-09T14:27:20.686Z,9.85
2022-12-09T14:29:52.026Z,10.82
2022-12-09T14:32:50.041Z,10.30
2022-12-09T14:35:41.817Z,9.90
2022-12-09T14:40:59.350Z,11.15
2022-12-09T14:43:50.648Z,13.77
2022-12-09T14:46:28.519Z,14.63
2022-12-09T14:49:03.212Z,17.08
2022-12-09T14:51:50.007Z,18.52
2022-12-09T14:54:22.042Z,21.73
2022-12-09T14:56:51.835Z,20.55
2022-12-09T14:59:23.634Z,19.80
2022-12-09T15:01:59.292Z,18.45
2022-12-09T15:04:33.471Z,12.75
2022-12-09T15:07:08.443Z,12.73
2022-12-09T15:09:35.225Z,14.48
2022-12-09T15:12:07.017Z,13.93
2022-12-09T15:14:33.523Z,14.82
2022-12-09T15:17:00.060Z,13.38
2022-12-09T15:22:23.723Z,16.70
2022-12-09T15:24:51.713Z,14.23
2022-12-09T15:27:21.314Z,14.32
2022-12-09T15:29:48.433Z,13.95
2022-12-09T15:32:28.365Z,13.85
2022-12-09T15:34:55.031Z,11.40
2022-12-09T15:37:29.042Z,12.98
2022-12-09T15:40:02.657Z,13.95
2022-12-09T15:42:33.519Z,13.52
2022-12-09T15:45:21.409Z,14.95
2022-12-09T15:47:55.295Z,14.90
2022-12-09T15:50:24.175Z,15.27
2022-12-09T15:53:15.109Z,16.10
2022-12-09T15:55:50.502Z,16.47
2022-12-09T15:58:25.600Z,17.08
2022-12-09T16:00:53.721Z,19.38
2022-12-09T16:03:24.345Z,20.17
2022-12-09T16:05:56.731Z,23.20
2022-12-09T16:08:30.460Z,22.45
2022-12-09T16:10:58.484Z,24.50
2022-12-09T16:13:26.019Z,25.90
2022-12-09T16:15:58.061Z,28.48
2022-12-09T16:18:26.099Z,31.45
2022-12-09T16:21:20.312Z,36.33
2022-12-09T16:23:50.825Z,35.60
2022-12-09T16:26:24.994Z,30.75
2022-12-09T16:29:00.828Z,29.63
2022-12-09T16:31:27.949Z,35.22
2022-12-09T16:33:54.837Z,38.67
2022-12-09T16:36:29.307Z,28.92
2022-12-09T16:39:08.037Z,39.50
2022-12-09T16:41:52.574Z,29.90
2022-12-09T16:44:38.356Z,29.33
2022-12-09T16:47:12.382Z,27.05
2022-12-09T16:49:40.097Z,26.98
2022-12-09T16:52:11.373Z,26.23
2022-12-09T16:54:38.304Z,25.40
2022-12-09T16:57:04.752Z,28.00
2022-12-09T16:59:37.608Z,32.15
2022-12-09T17:02:19.912Z,25.90
2022-12-09T17:04:47.928Z,28.27
2022-12-09T17:07:14.436Z,32.78
2022-12-09T17:09:40.858Z,22.10
2022-12-09T17:12:07.575Z,34.05
2022-12-09T17:14:33.973Z,26.83
2022-12-09T17:17:01.025Z,23.13
2022-12-09T17:19:27.452Z,26.02
2022-12-09T17:21:53.967Z,25.30
2022-12-09T17:24:20.847Z,24.35
2022-12-09T17:26:47.259Z,24.05
2022-12-09T17:29:13.783Z,25.38
2022-12-09T17:31:40.278Z,23.08
2022-12-09T17:34:06.768Z,23.20
2022-12-09T17:36:33.207Z,26.10
2022-12-09T17:39:03.359Z,21.15
2022-12-09T17:41:29.941Z,23.17
2022-12-09T17:43:57.806Z,21.42
2022-12-09T17:46:24.616Z,20.30
2022-12-09T17:48:51.176Z,22.15
2022-12-09T17:51:17.935Z,19.98
2022-12-09T17:53:45.652Z,22.02
2022-12-09T17:56:15.098Z,20.98
2022-12-09T17:58:42.316Z,21.45
2022-12-09T18:01:20.656Z,25.88
2022-12-09T18:03:56.584Z,21.27
2022-12-09T18:06:25.624Z,22.40
2022-12-09T18:08:52.806Z,24.40
2022-12-09T18:11:19.260Z,28.25
2022-12-09T18:13:46.629Z,27.92
2022-12-09T18:16:13.888Z,26.20
2022-12-09T18:18:41.555Z,29.45
2022-12-09T18:21:15.091Z,27.58
2022-12-09T18:23:42.393Z,27.60
2022-12-09T18:26:10.896Z,27.42
2022-12-09T18:28:37.824Z,31.50
2022-12-09T18:31:09.106Z,30.55
2022-12-09T18:33:37.637Z,29.33
2022-12-09T18:36:15.536Z,29.65
2022-12-09T18:38:42.667Z,33.17
2022-12-09T18:41:13.926Z,30.83
2022-12-09T18:43:42.812Z,31.40
2022-12-09T18:46:21.381Z,33.65
2022-12-09T18:49:10.038Z,30.95
2022-12-09T18:51:37.167Z,33.28
2022-12-09T18:54:04.384Z,33.05
2022-12-09T18:56:31.294Z,31.15
2022-12-09T18:59:06.336Z,34.08
2022-12-09T19:01:34.203Z,31.35
2022-12-09T19:04:02.680Z,31.15
2022-12-09T19:06:32.758Z,31.17
2022-12-09T19:09:02.257Z,35.53
2022-12-09T19:11:31.675Z,31.98
2022-12-09T19:13:58.737Z,33.00
2022-12-09T19:16:26.845Z,32.88
2022-12-09T19:18:53.795Z,30.17
2022-12-09T19:21:22.099Z,28.33
2022-12-09T19:23:49.239Z,29.52
2022-12-09T19:26:20.322Z,27.20
2022-12-09T19:28:55.338Z,27.77
2022-12-09T19:31:35.930Z,26.58
2022-12-09T19:34:05.879Z,25.73
2022-12-09T19:36:34.190Z,23.63
2022-12-09T19:39:02.171Z,24.70
2022-12-09T19:41:28.668Z,25.95
2022-12-09T19:43:56.605Z,22.60
2022-12-09T19:46:23.494Z,20.83
2022-12-09T19:48:50.003Z,23.55
2022-12-09T19:51:18.233Z,24.38
2022-12-09T19:53:45.151Z,21.10
2022-12-09T19:56:14.943Z,20.10
2022-12-09T19:58:42.721Z,20.33
2022-12-09T20:01:14.065Z,21.35
2022-12-09T20:03:42.143Z,20.05
2022-12-09T20:06:10.417Z,20.80
2022-12-09T20:08:36.949Z,19.23
2022-12-09T20:11:05.302Z,22.10
2022-12-09T20:13:32.306Z,20.83
2022-12-09T20:16:03.829Z,18.77
2022-12-09T20:21:01.367Z,18.95
2022-12-09T20:23:28.206Z,20.27
2022-12-09T20:25:54.742Z,18.25
2022-12-09T20:28:21.167Z,21.42
2022-12-09T20:30:47.688Z,20.60
2022-12-09T20:33:14.127Z,19.40
2022-12-09T20:35:40.553Z,23.25
2022-12-09T20:38:06.976Z,19.35
2022-12-09T20:40:40.512Z,20.15
2022-12-09T20:43:07.275Z,20.13
2022-12-09T20:45:33.699Z,20.30
2022-12-09T20:48:00.125Z,21.23
2022-12-09T20:50:26.547Z,22.38
2022-12-09T20:52:52.993Z,18.42
2022-12-09T20:55:21.908Z,22.42
2022-12-09T20:57:48.341Z,17.88
2022-12-09T21:00:15.055Z,18.92
2022-12-09T21:02:41.496Z,23.42
2022-12-09T21:05:08.528Z,18.58
2022-12-09T21:07:35.190Z,20.20
2022-12-09T21:10:01.645Z,22.40
2022-12-09T21:12:28.048Z,21.00
2022-12-09T21:14:54.594Z,22.23
2022-12-09T21:17:20.994Z,21.08
2022-12-09T21:19:47.404Z,21.63
2022-12-09T21:22:13.808Z,21.77
2022-12-09T21:24:40.250Z,20.13
2022-12-09T21:27:06.631Z,19.10
2022-12-09T21:29:33.067Z,20.85
2022-12-09T21:32:01.357Z,20.58
2022-12-09T21:34:28.032Z,20.88
2022-12-09T21:36:54.475Z,20.40
2022-12-09T21:39:21.024Z,20.73
2022-12-09T21:41:47.575Z,20.13
2022-12-09T21:44:17.517Z,20.52
2022-12-09T21:46:44.594Z,20.73
2022-12-09T21:49:11.841Z,20.70
2022-12-09T21:51:38.466Z,20.88
2022-12-09T21:54:04.997Z,20.80
2022-12-09T21:56:35.003Z,20.58
2022-12-09T21:59:02.966Z,19.52
2022-12-09T22:01:32.976Z,20.83
2022-12-09T22:04:01.427Z,23.00
2022-12-09T22:06:28.855Z,21.50
2022-12-09T22:08:57.296Z,20.17
2022-12-09T22:11:28.777Z,21.13
2022-12-09T22:14:00.651Z,21.60
2022-12-09T22:16:30.286Z,22.63
2022-12-09T22:18:58.861Z,20.92
2022-12-09T22:21:28.418Z,23.15
2022-12-09T22:24:00.185Z,22.92
2022-12-09T22:26:27.228Z,23.63
2022-12-09T22:28:54.683Z,21.30
2022-12-09T22:31:27.019Z,22.55
2022-12-09T22:33:56.175Z,21.10
2022-12-09T22:36:23.245Z,23.02
2022-12-09T22:38:50.649Z,22.77
2022-12-09T22:41:23.366Z,24.35
2022-12-09T22:43:50.723Z,22.77
2022-12-09T22:46:20.659Z,23.00
2022-12-09T22:48:48.367Z,22.60
2022-12-09T22:51:21.168Z,22.48
2022-12-09T22:53:49.672Z,21.92
2022-12-09T22:56:16.612Z,22.70
2022-12-09T22:58:43.260Z,24.15
2022-12-09T23:01:14.904Z,23.52
2022-12-09T23:03:41.749Z,22.70
2022-12-09T23:06:08.891Z,22.75
2022-12-09T23:08:37.553Z,23.90
2022-12-09T23:11:06.866Z,24.08
2022-12-09T23:13:40.735Z,22.25
2022-12-09T23:16:13.153Z,21.63
2022-12-09T23:18:40.005Z,22.67
2022-12-09T23:21:10.781Z,22.05
2022-12-09T23:23:37.668Z,23.27
2022-12-09T23:26:06.526Z,22.92
2022-12-09T23:28:37.289Z,22.75
2022-12-09T23:31:05.878Z,25.10
2022-12-09T23:33:34.350Z,24.17
2022-12-09T23:36:09.579Z,23.35
2022-12-09T23:38:36.330Z,21.80
2022-12-09T23:41:03.328Z,23.05
2022-12-09T23:43:31.275Z,20.75
2022-12-09T23:46:19.825Z,24.23
2022-12-09T23:48:48.081Z,23.23
2022-12-09T23:51:20.835Z,22.80
2022-12-09T23:53:49.203Z,24.40
2022-12-09T23:56:20.745Z,23.13
